sensor_id;sensor_type;location;lat;lon;timestamp;temperature;humidity
25092;DHT22;13082;52.374;4.946;2023-06-19T00:00:09;23.20;99.90
25092;DHT22;13082;52.374;4.946;2023-06-19T00:02:41;23.20;99.90
25092;DHT22;13082;52.374;4.946;2023-06-19T00:05:08;23.10;99.90
25092;DHT22;13082;52.374;4.946;2023-06-19T00:07:35;23.10;99.90
25092;DHT22;13082;52.374;4.946;2023-06-19T00:10:01;23.10;99.90
25092;DHT22;13082;52.374;4.946;2023-06-19T00:12:26;23.10;99.90
25092;DHT22;13082;52.374;4.946;2023-06-19T00:14:52;23.10;99.90
25092;DHT22;13082;52.374;4.946;2023-06-19T00:17:17;23.10;99.90
25092;DHT22;13082;52.374;4.946;2023-06-19T00:19:44;23.00;99.90
25092;DHT22;13082;52.374;4.946;2023-06-19T00:22:09;23.00;99.90
25092;DHT22;13082;52.374;4.946;2023-06-19T00:24:35;22.90;99.90
25092;DHT22;13082;52.374;4.946;2023-06-19T00:27:01;22.90;99.90
25092;DHT22;13082;52.374;4.946;2023-06-19T00:29:28;22.90;99.90
25092;DHT22;13082;52.374;4.946;2023-06-19T00:31:54;22.90;99.90
25092;DHT22;13082;52.374;4.946;2023-06-19T00:34:19;22.90;99.90
25092;DHT22;13082;52.374;4.946;2023-06-19T00:36:45;22.90;99.90
25092;DHT22;13082;52.374;4.946;2023-06-19T00:39:12;22.90;99.90
25092;DHT22;13082;52.374;4.946;2023-06-19T00:41:38;22.90;99.90
25092;DHT22;13082;52.374;4.946;2023-06-19T00:44:04;22.90;99.90
25092;DHT22;13082;52.374;4.946;2023-06-19T00:46:30;22.80;99.90
25092;DHT22;13082;52.374;4.946;2023-06-19T00:48:56;22.70;99.90
25092;DHT22;13082;52.374;4.946;2023-06-19T00:51:22;22.60;99.90
25092;DHT22;13082;52.374;4.946;2023-06-19T00:53:48;22.60;99.90
25092;DHT22;13082;52.374;4.946;2023-06-19T00:56:14;22.50;99.90
25092;DHT22;13082;52.374;4.946;2023-06-19T00:58:41;22.40;99.90
25092;DHT22;13082;52.374;4.946;2023-06-19T01:01:06;22.20;99.90
25092;DHT22;13082;52.374;4.946;2023-06-19T01:03:32;22.20;99.90
25092;DHT22;13082;52.374;4.946;2023-06-19T01:06:00;22.20;99.90
25092;DHT22;13082;52.374;4.946;2023-06-19T01:11:11;22.00;99.90
25092;DHT22;13082;52.374;4.946;2023-06-19T01:13:59;21.90;99.90
25092;DHT22;13082;52.374;4.946;2023-06-19T01:16:27;21.90;99.90
25092;DHT22;13082;52.374;4.946;2023-06-19T01:18:54;21.80;99.90
25092;DHT22;13082;52.374;4.946;2023-06-19T01:21:19;21.70;99.90
25092;DHT22;13082;52.374;4.946;2023-06-19T01:23:45;21.70;99.90
25092;DHT22;13082;52.374;4.946;2023-06-19T01:26:12;21.60;99.90
25092;DHT22;13082;52.374;4.946;2023-06-19T01:28:40;21.50;99.90
25092;DHT22;13082;52.374;4.946;2023-06-19T01:31:19;21.50;99.90
25092;DHT22;13082;52.374;4.946;2023-06-19T01:33:47;21.50;99.90
25092;DHT22;13082;52.374;4.946;2023-06-19T01:36:14;21.30;99.90
25092;DHT22;13082;52.374;4.946;2023-06-19T01:38:40;21.20;99.90
25092;DHT22;13082;52.374;4.946;2023-06-19T01:41:09;21.10;99.90
25092;DHT22;13082;52.374;4.946;2023-06-19T01:43:36;21.00;99.90
25092;DHT22;13082;52.374;4.946;2023-06-19T01:46:02;20.90;99.90
25092;DHT22;13082;52.374;4.946;2023-06-19T01:48:29;20.70;99.90
25092;DHT22;13082;52.374;4.946;2023-06-19T01:50:55;20.70;99.90
25092;DHT22;13082;52.374;4.946;2023-06-19T01:53:20;20.70;99.90
25092;DHT22;13082;52.374;4.946;2023-06-19T01:55:46;20.70;99.90
25092;DHT22;13082;52.374;4.946;2023-06-19T01:58:12;20.60;99.90
25092;DHT22;13082;52.374;4.946;2023-06-19T02:00:37;20.70;99.90
25092;DHT22;13082;52.374;4.946;2023-06-19T02:03:04;20.70;99.90
25092;DHT22;13082;52.374;4.946;2023-06-19T02:05:32;20.70;99.90
25092;DHT22;13082;52.374;4.946;2023-06-19T02:07:59;20.60;99.90
25092;DHT22;13082;52.374;4.946;2023-06-19T02:10:25;20.60;99.90
25092;DHT22;13082;52.374;4.946;2023-06-19T02:12:50;20.60;99.90
25092;DHT22;13082;52.374;4.946;2023-06-19T02:15:16;20.40;99.90
25092;DHT22;13082;52.374;4.946;2023-06-19T02:17:41;20.40;99.90
25092;DHT22;13082;52.374;4.946;2023-06-19T02:20:09;20.30;99.90
25092;DHT22;13082;52.374;4.946;2023-06-19T02:22:38;20.20;99.90
25092;DHT22;13082;52.374;4.946;2023-06-19T02:25:04;20.20;99.90
25092;DHT22;13082;52.374;4.946;2023-06-19T02:27:29;20.20;99.90
25092;DHT22;13082;52.374;4.946;2023-06-19T02:29:55;20.20;99.90
25092;DHT22;13082;52.374;4.946;2023-06-19T02:32:21;20.30;99.90
25092;DHT22;13082;52.374;4.946;2023-06-19T02:34:46;20.30;99.90
25092;DHT22;13082;52.374;4.946;2023-06-19T02:37:12;20.30;99.90
25092;DHT22;13082;52.374;4.946;2023-06-19T02:39:37;20.30;99.90
25092;DHT22;13082;52.374;4.946;2023-06-19T02:42:03;20.30;99.90
25092;DHT22;13082;52.374;4.946;2023-06-19T02:44:30;20.20;99.90
25092;DHT22;13082;52.374;4.946;2023-06-19T02:46:55;20.20;99.90
25092;DHT22;13082;52.374;4.946;2023-06-19T02:49:21;20.20;99.90
25092;DHT22;13082;52.374;4.946;2023-06-19T02:51:46;20.20;99.90
25092;DHT22;13082;52.374;4.946;2023-06-19T02:54:12;20.30;99.90
25092;DHT22;13082;52.374;4.946;2023-06-19T02:56:38;20.30;99.90
25092;DHT22;13082;52.374;4.946;2023-06-19T02:59:04;20.30;99.90
25092;DHT22;13082;52.374;4.946;2023-06-19T03:01:30;20.30;99.90
25092;DHT22;13082;52.374;4.946;2023-06-19T03:03:55;20.30;99.90
25092;DHT22;13082;52.374;4.946;2023-06-19T03:06:21;20.30;99.90
25092;DHT22;13082;52.374;4.946;2023-06-19T03:08:47;20.30;99.90
25092;DHT22;13082;52.374;4.946;2023-06-19T03:11:12;20.30;99.90
25092;DHT22;13082;52.374;4.946;2023-06-19T03:13:51;20.30;99.90
25092;DHT22;13082;52.374;4.946;2023-06-19T03:16:17;20.30;99.90
25092;DHT22;13082;52.374;4.946;2023-06-19T03:18:44;20.30;99.90
25092;DHT22;13082;52.374;4.946;2023-06-19T03:21:13;20.20;99.90
25092;DHT22;13082;52.374;4.946;2023-06-19T03:23:40;20.20;99.90
25092;DHT22;13082;52.374;4.946;2023-06-19T03:26:12;20.10;99.90
25092;DHT22;13082;52.374;4.946;2023-06-19T03:28:37;20.00;99.90
25092;DHT22;13082;52.374;4.946;2023-06-19T03:31:03;20.00;99.90
25092;DHT22;13082;52.374;4.946;2023-06-19T03:33:29;20.10;99.90
25092;DHT22;13082;52.374;4.946;2023-06-19T03:35:54;20.10;99.90
25092;DHT22;13082;52.374;4.946;2023-06-19T03:38:20;20.10;99.90
25092;DHT22;13082;52.374;4.946;2023-06-19T03:40:46;20.20;99.90
25092;DHT22;13082;52.374;4.946;2023-06-19T03:43:11;20.20;99.90
25092;DHT22;13082;52.374;4.946;2023-06-19T03:45:37;20.30;99.90
25092;DHT22;13082;52.374;4.946;2023-06-19T03:48:03;20.30;99.90
25092;DHT22;13082;52.374;4.946;2023-06-19T03:50:29;20.30;99.90
25092;DHT22;13082;52.374;4.946;2023-06-19T03:52:54;20.30;99.90
25092;DHT22;13082;52.374;4.946;2023-06-19T03:55:20;20.20;99.90
25092;DHT22;13082;52.374;4.946;2023-06-19T03:57:46;20.20;99.90
25092;DHT22;13082;52.374;4.946;2023-06-19T04:00:13;20.20;99.90
25092;DHT22;13082;52.374;4.946;2023-06-19T04:02:39;20.20;99.90
25092;DHT22;13082;52.374;4.946;2023-06-19T04:05:05;20.10;99.90
25092;DHT22;13082;52.374;4.946;2023-06-19T04:07:31;20.00;99.90
25092;DHT22;13082;52.374;4.946;2023-06-19T04:09:57;20.00;99.90
25092;DHT22;13082;52.374;4.946;2023-06-19T04:12:23;19.90;99.90
25092;DHT22;13082;52.374;4.946;2023-06-19T04:14:49;19.90;99.90
25092;DHT22;13082;52.374;4.946;2023-06-19T04:17:15;19.80;99.90
25092;DHT22;13082;52.374;4.946;2023-06-19T04:19:41;19.80;99.90
25092;DHT22;13082;52.374;4.946;2023-06-19T04:22:07;19.90;99.90
25092;DHT22;13082;52.374;4.946;2023-06-19T04:24:32;19.80;99.90
25092;DHT22;13082;52.374;4.946;2023-06-19T04:26:58;19.80;99.90
25092;DHT22;13082;52.374;4.946;2023-06-19T04:29:24;19.70;99.90
25092;DHT22;13082;52.374;4.946;2023-06-19T04:31:49;19.80;99.90
25092;DHT22;13082;52.374;4.946;2023-06-19T04:34:18;19.70;99.90
25092;DHT22;13082;52.374;4.946;2023-06-19T04:36:47;19.70;99.90
25092;DHT22;13082;52.374;4.946;2023-06-19T04:39:13;19.60;99.90
25092;DHT22;13082;52.374;4.946;2023-06-19T04:41:40;19.50;99.90
25092;DHT22;13082;52.374;4.946;2023-06-19T04:44:06;19.40;99.90
25092;DHT22;13082;52.374;4.946;2023-06-19T04:46:33;19.40;99.90
25092;DHT22;13082;52.374;4.946;2023-06-19T04:48:58;19.40;99.90
25092;DHT22;13082;52.374;4.946;2023-06-19T04:51:24;19.30;99.90
25092;DHT22;13082;52.374;4.946;2023-06-19T04:53:51;19.40;99.90
25092;DHT22;13082;52.374;4.946;2023-06-19T04:56:17;19.40;99.90
25092;DHT22;13082;52.374;4.946;2023-06-19T04:58:43;19.30;99.90
25092;DHT22;13082;52.374;4.946;2023-06-19T05:01:13;19.30;99.90
25092;DHT22;13082;52.374;4.946;2023-06-19T05:03:39;19.40;99.90
25092;DHT22;13082;52.374;4.946;2023-06-19T05:06:05;19.30;99.90
25092;DHT22;13082;52.374;4.946;2023-06-19T05:08:31;19.30;99.90
25092;DHT22;13082;52.374;4.946;2023-06-19T05:10:56;19.30;99.90
25092;DHT22;13082;52.374;4.946;2023-06-19T05:13:23;19.30;99.90
25092;DHT22;13082;52.374;4.946;2023-06-19T05:15:49;19.20;99.90
25092;DHT22;13082;52.374;4.946;2023-06-19T05:18:16;19.20;99.90
25092;DHT22;13082;52.374;4.946;2023-06-19T05:20:42;19.20;99.90
25092;DHT22;13082;52.374;4.946;2023-06-19T05:23:08;19.20;99.90
25092;DHT22;13082;52.374;4.946;2023-06-19T05:25:33;19.20;99.90
25092;DHT22;13082;52.374;4.946;2023-06-19T05:27:59;19.20;99.90
25092;DHT22;13082;52.374;4.946;2023-06-19T05:30:24;19.20;99.90
25092;DHT22;13082;52.374;4.946;2023-06-19T05:32:50;19.20;99.90
25092;DHT22;13082;52.374;4.946;2023-06-19T05:35:16;19.20;99.90
25092;DHT22;13082;52.374;4.946;2023-06-19T05:37:41;19.30;99.90
25092;DHT22;13082;52.374;4.946;2023-06-19T05:40:09;19.20;99.90
25092;DHT22;13082;52.374;4.946;2023-06-19T05:42:35;19.20;99.90
25092;DHT22;13082;52.374;4.946;2023-06-19T05:45:02;19.30;99.90
25092;DHT22;13082;52.374;4.946;2023-06-19T05:47:28;19.30;99.90
25092;DHT22;13082;52.374;4.946;2023-06-19T05:49:54;19.40;99.90
25092;DHT22;13082;52.374;4.946;2023-06-19T05:52:20;19.40;99.90
25092;DHT22;13082;52.374;4.946;2023-06-19T05:54:47;19.40;99.90
25092;DHT22;13082;52.374;4.946;2023-06-19T05:57:12;19.40;99.90
25092;DHT22;13082;52.374;4.946;2023-06-19T05:59:38;19.50;99.90
25092;DHT22;13082;52.374;4.946;2023-06-19T06:02:04;19.40;99.90
25092;DHT22;13082;52.374;4.946;2023-06-19T06:04:31;19.40;99.90
25092;DHT22;13082;52.374;4.946;2023-06-19T06:06:57;19.40;99.90
25092;DHT22;13082;52.374;4.946;2023-06-19T06:09:22;19.40;99.90
25092;DHT22;13082;52.374;4.946;2023-06-19T06:11:48;19.40;99.90
25092;DHT22;13082;52.374;4.946;2023-06-19T06:14:14;19.40;99.90
25092;DHT22;13082;52.374;4.946;2023-06-19T06:16:39;19.40;99.90
25092;DHT22;13082;52.374;4.946;2023-06-19T06:19:06;19.40;99.90
25092;DHT22;13082;52.374;4.946;2023-06-19T06:21:31;19.30;99.90
25092;DHT22;13082;52.374;4.946;2023-06-19T06:23:57;19.30;99.90
25092;DHT22;13082;52.374;4.946;2023-06-19T06:26:23;19.40;99.90
25092;DHT22;13082;52.374;4.946;2023-06-19T06:28:48;19.30;99.90
25092;DHT22;13082;52.374;4.946;2023-06-19T06:31:14;19.20;99.90
25092;DHT22;13082;52.374;4.946;2023-06-19T06:33:40;19.20;99.90
25092;DHT22;13082;52.374;4.946;2023-06-19T06:36:05;19.10;99.90
25092;DHT22;13082;52.374;4.946;2023-06-19T06:38:31;19.00;99.90
25092;DHT22;13082;52.374;4.946;2023-06-19T06:40:57;19.00;99.90
25092;DHT22;13082;52.374;4.946;2023-06-19T06:43:22;19.00;99.90
25092;DHT22;13082;52.374;4.946;2023-06-19T06:45:48;19.00;99.90
25092;DHT22;13082;52.374;4.946;2023-06-19T06:48:13;19.00;99.90
25092;DHT22;13082;52.374;4.946;2023-06-19T06:50:39;19.00;99.90
25092;DHT22;13082;52.374;4.946;2023-06-19T06:53:06;18.90;99.90
25092;DHT22;13082;52.374;4.946;2023-06-19T06:55:32;18.80;99.90
25092;DHT22;13082;52.374;4.946;2023-06-19T06:57:57;18.80;99.90
25092;DHT22;13082;52.374;4.946;2023-06-19T07:00:23;18.80;99.90
25092;DHT22;13082;52.374;4.946;2023-06-19T07:02:49;18.70;99.90
25092;DHT22;13082;52.374;4.946;2023-06-19T07:05:16;18.60;99.90
25092;DHT22;13082;52.374;4.946;2023-06-19T07:07:41;18.60;99.90
25092;DHT22;13082;52.374;4.946;2023-06-19T07:10:08;18.50;99.90
25092;DHT22;13082;52.374;4.946;2023-06-19T07:12:34;18.40;99.90
25092;DHT22;13082;52.374;4.946;2023-06-19T07:15:00;18.30;99.90
25092;DHT22;13082;52.374;4.946;2023-06-19T07:17:25;18.30;99.90
25092;DHT22;13082;52.374;4.946;2023-06-19T07:19:51;18.30;99.90
25092;DHT22;13082;52.374;4.946;2023-06-19T07:22:16;18.30;99.90
25092;DHT22;13082;52.374;4.946;2023-06-19T07:24:42;18.30;99.90
25092;DHT22;13082;52.374;4.946;2023-06-19T07:27:08;18.40;99.90
25092;DHT22;13082;52.374;4.946;2023-06-19T07:29:33;18.30;99.90
25092;DHT22;13082;52.374;4.946;2023-06-19T07:31:59;18.40;99.90
25092;DHT22;13082;52.374;4.946;2023-06-19T07:34:27;18.40;99.90
25092;DHT22;13082;52.374;4.946;2023-06-19T07:36:53;18.50;99.90
25092;DHT22;13082;52.374;4.946;2023-06-19T07:39:19;18.50;99.90
25092;DHT22;13082;52.374;4.946;2023-06-19T07:41:44;18.50;99.90
25092;DHT22;13082;52.374;4.946;2023-06-19T07:44:11;18.50;99.90
25092;DHT22;13082;52.374;4.946;2023-06-19T07:46:36;18.60;99.90
25092;DHT22;13082;52.374;4.946;2023-06-19T07:49:02;18.60;99.90
25092;DHT22;13082;52.374;4.946;2023-06-19T07:51:28;18.70;99.90
25092;DHT22;13082;52.374;4.946;2023-06-19T07:53:53;18.70;99.90
25092;DHT22;13082;52.374;4.946;2023-06-19T07:56:19;18.80;99.90
25092;DHT22;13082;52.374;4.946;2023-06-19T07:58:45;18.90;99.90
25092;DHT22;13082;52.374;4.946;2023-06-19T08:01:10;19.10;99.90
25092;DHT22;13082;52.374;4.946;2023-06-19T08:03:36;19.20;99.90
25092;DHT22;13082;52.374;4.946;2023-06-19T08:06:03;19.20;99.90
25092;DHT22;13082;52.374;4.946;2023-06-19T08:08:28;19.30;99.90
25092;DHT22;13082;52.374;4.946;2023-06-19T08:10:54;19.40;99.90
25092;DHT22;13082;52.374;4.946;2023-06-19T08:13:19;19.40;99.90
25092;DHT22;13082;52.374;4.946;2023-06-19T08:15:45;19.40;99.90
25092;DHT22;13082;52.374;4.946;2023-06-19T08:18:11;19.40;99.90
25092;DHT22;13082;52.374;4.946;2023-06-19T08:20:36;19.40;99.90
25092;DHT22;13082;52.374;4.946;2023-06-19T08:23:03;19.50;99.90
25092;DHT22;13082;52.374;4.946;2023-06-19T08:25:28;19.40;99.90
25092;DHT22;13082;52.374;4.946;2023-06-19T08:27:54;19.50;99.90
25092;DHT22;13082;52.374;4.946;2023-06-19T08:30:19;19.60;99.90
25092;DHT22;13082;52.374;4.946;2023-06-19T08:32:46;19.60;99.90
25092;DHT22;13082;52.374;4.946;2023-06-19T08:35:12;19.70;99.90
25092;DHT22;13082;52.374;4.946;2023-06-19T08:37:37;19.70;99.90
25092;DHT22;13082;52.374;4.946;2023-06-19T08:40:04;19.70;99.90
25092;DHT22;13082;52.374;4.946;2023-06-19T08:42:34;19.80;99.90
25092;DHT22;13082;52.374;4.946;2023-06-19T08:44:59;19.80;99.90
25092;DHT22;13082;52.374;4.946;2023-06-19T08:47:30;19.90;99.90
25092;DHT22;13082;52.374;4.946;2023-06-19T08:49:58;19.90;99.90
25092;DHT22;13082;52.374;4.946;2023-06-19T08:52:23;19.80;99.90
25092;DHT22;13082;52.374;4.946;2023-06-19T08:54:49;19.70;99.90
25092;DHT22;13082;52.374;4.946;2023-06-19T08:57:14;19.70;99.90
25092;DHT22;13082;52.374;4.946;2023-06-19T08:59:50;19.70;99.90
25092;DHT22;13082;52.374;4.946;2023-06-19T09:02:16;19.60;99.90
25092;DHT22;13082;52.374;4.946;2023-06-19T09:04:42;19.70;99.90
25092;DHT22;13082;52.374;4.946;2023-06-19T09:07:08;19.80;99.90
25092;DHT22;13082;52.374;4.946;2023-06-19T09:09:34;19.90;99.90
25092;DHT22;13082;52.374;4.946;2023-06-19T09:16:57;20.20;99.90
25092;DHT22;13082;52.374;4.946;2023-06-19T09:19:23;20.30;99.90
25092;DHT22;13082;52.374;4.946;2023-06-19T09:21:48;20.30;99.90
25092;DHT22;13082;52.374;4.946;2023-06-19T09:24:14;20.30;99.90
25092;DHT22;13082;52.374;4.946;2023-06-19T09:26:40;20.30;99.90
25092;DHT22;13082;52.374;4.946;2023-06-19T09:29:13;20.30;99.90
25092;DHT22;13082;52.374;4.946;2023-06-19T09:31:41;20.30;99.90
25092;DHT22;13082;52.374;4.946;2023-06-19T09:34:07;20.30;99.90
25092;DHT22;13082;52.374;4.946;2023-06-19T09:36:35;20.30;99.90
25092;DHT22;13082;52.374;4.946;2023-06-19T09:39:02;20.30;99.90
25092;DHT22;13082;52.374;4.946;2023-06-19T09:41:29;20.50;99.90
25092;DHT22;13082;52.374;4.946;2023-06-19T09:43:56;20.50;99.90
25092;DHT22;13082;52.374;4.946;2023-06-19T09:46:29;20.50;99.90
25092;DHT22;13082;52.374;4.946;2023-06-19T09:49:00;20.70;99.90
25092;DHT22;13082;52.374;4.946;2023-06-19T09:51:41;20.80;99.90
25092;DHT22;13082;52.374;4.946;2023-06-19T09:54:07;20.80;99.90
25092;DHT22;13082;52.374;4.946;2023-06-19T09:56:34;20.90;99.90
25092;DHT22;13082;52.374;4.946;2023-06-19T09:59:01;20.80;99.90
25092;DHT22;13082;52.374;4.946;2023-06-19T10:01:30;20.80;99.90
25092;DHT22;13082;52.374;4.946;2023-06-19T10:04:08;20.70;99.90
25092;DHT22;13082;52.374;4.946;2023-06-19T10:06:46;20.70;99.90
25092;DHT22;13082;52.374;4.946;2023-06-19T10:09:14;20.60;99.90
25092;DHT22;13082;52.374;4.946;2023-06-19T10:11:52;20.80;99.90
25092;DHT22;13082;52.374;4.946;2023-06-19T10:14:19;20.90;99.90
25092;DHT22;13082;52.374;4.946;2023-06-19T10:16:46;20.80;99.90
25092;DHT22;13082;52.374;4.946;2023-06-19T10:19:14;20.90;99.90
25092;DHT22;13082;52.374;4.946;2023-06-19T10:21:52;21.20;99.90
25092;DHT22;13082;52.374;4.946;2023-06-19T10:24:19;21.30;99.90
25092;DHT22;13082;52.374;4.946;2023-06-19T10:27:00;21.40;99.90
25092;DHT22;13082;52.374;4.946;2023-06-19T10:29:26;21.40;99.90
25092;DHT22;13082;52.374;4.946;2023-06-19T10:31:53;21.50;99.90
25092;DHT22;13082;52.374;4.946;2023-06-19T10:34:18;21.60;99.90
25092;DHT22;13082;52.374;4.946;2023-06-19T10:36:44;21.80;99.90
25092;DHT22;13082;52.374;4.946;2023-06-19T10:39:10;21.80;99.90
25092;DHT22;13082;52.374;4.946;2023-06-19T10:41:35;21.80;99.90
25092;DHT22;13082;52.374;4.946;2023-06-19T10:44:06;21.80;99.90
25092;DHT22;13082;52.374;4.946;2023-06-19T10:46:37;21.90;99.90
25092;DHT22;13082;52.374;4.946;2023-06-19T10:49:05;21.90;99.90
25092;DHT22;13082;52.374;4.946;2023-06-19T10:51:35;21.90;99.90
25092;DHT22;13082;52.374;4.946;2023-06-19T10:54:00;21.90;99.90
25092;DHT22;13082;52.374;4.946;2023-06-19T10:56:26;21.90;99.90
25092;DHT22;13082;52.374;4.946;2023-06-19T10:59:03;21.90;99.90
25092;DHT22;13082;52.374;4.946;2023-06-19T11:01:41;21.90;99.90
25092;DHT22;13082;52.374;4.946;2023-06-19T11:04:09;22.00;99.90
25092;DHT22;13082;52.374;4.946;2023-06-19T11:06:36;22.10;99.90
25092;DHT22;13082;52.374;4.946;2023-06-19T11:09:07;22.10;99.90
25092;DHT22;13082;52.374;4.946;2023-06-19T11:14:05;22.20;99.90
25092;DHT22;13082;52.374;4.946;2023-06-19T11:16:32;22.30;99.90
25092;DHT22;13082;52.374;4.946;2023-06-19T11:18:58;22.30;99.90
25092;DHT22;13082;52.374;4.946;2023-06-19T11:21:37;22.50;99.90
25092;DHT22;13082;52.374;4.946;2023-06-19T11:24:11;22.70;99.90
25092;DHT22;13082;52.374;4.946;2023-06-19T11:26:41;22.70;99.90
25092;DHT22;13082;52.374;4.946;2023-06-19T11:29:38;22.60;99.90
25092;DHT22;13082;52.374;4.946;2023-06-19T11:32:12;22.70;99.90
25092;DHT22;13082;52.374;4.946;2023-06-19T11:34:39;22.80;99.90
25092;DHT22;13082;52.374;4.946;2023-06-19T11:37:15;22.80;99.90
25092;DHT22;13082;52.374;4.946;2023-06-19T11:39:44;22.90;99.90
25092;DHT22;13082;52.374;4.946;2023-06-19T11:42:09;23.10;99.90
25092;DHT22;13082;52.374;4.946;2023-06-19T11:44:35;23.20;99.90
25092;DHT22;13082;52.374;4.946;2023-06-19T11:47:01;23.30;99.90
25092;DHT22;13082;52.374;4.946;2023-06-19T11:49:35;23.20;99.90
25092;DHT22;13082;52.374;4.946;2023-06-19T11:52:01;23.10;99.90
25092;DHT22;13082;52.374;4.946;2023-06-19T11:54:26;23.20;99.90
25092;DHT22;13082;52.374;4.946;2023-06-19T11:56:52;23.30;99.90
25092;DHT22;13082;52.374;4.946;2023-06-19T11:59:17;23.40;99.90
25092;DHT22;13082;52.374;4.946;2023-06-19T12:01:43;23.60;99.90
25092;DHT22;13082;52.374;4.946;2023-06-19T12:04:09;23.50;99.90
25092;DHT22;13082;52.374;4.946;2023-06-19T12:06:34;23.50;99.90
25092;DHT22;13082;52.374;4.946;2023-06-19T12:09:01;23.50;99.90
25092;DHT22;13082;52.374;4.946;2023-06-19T12:11:28;23.50;99.90
25092;DHT22;13082;52.374;4.946;2023-06-19T12:13:53;23.50;99.90
25092;DHT22;13082;52.374;4.946;2023-06-19T12:16:21;23.60;99.90
25092;DHT22;13082;52.374;4.946;2023-06-19T12:18:46;23.70;99.90
25092;DHT22;13082;52.374;4.946;2023-06-19T12:21:12;23.80;99.90
25092;DHT22;13082;52.374;4.946;2023-06-19T12:23:37;23.90;99.90
25092;DHT22;13082;52.374;4.946;2023-06-19T12:26:03;23.70;99.90
25092;DHT22;13082;52.374;4.946;2023-06-19T12:28:29;23.60;99.90
25092;DHT22;13082;52.374;4.946;2023-06-19T12:30:55;23.70;99.90
25092;DHT22;13082;52.374;4.946;2023-06-19T12:33:21;23.80;99.90
25092;DHT22;13082;52.374;4.946;2023-06-19T12:35:47;24.10;99.90
25092;DHT22;13082;52.374;4.946;2023-06-19T12:38:13;24.20;99.90
25092;DHT22;13082;52.374;4.946;2023-06-19T12:40:39;24.10;99.90
25092;DHT22;13082;52.374;4.946;2023-06-19T12:43:06;24.00;99.90
25092;DHT22;13082;52.374;4.946;2023-06-19T12:45:31;24.00;99.90
25092;DHT22;13082;52.374;4.946;2023-06-19T12:47:57;24.10;99.90
25092;DHT22;13082;52.374;4.946;2023-06-19T12:50:23;24.20;99.90
25092;DHT22;13082;52.374;4.946;2023-06-19T12:52:50;24.30;99.90
25092;DHT22;13082;52.374;4.946;2023-06-19T12:55:15;24.20;99.90
25092;DHT22;13082;52.374;4.946;2023-06-19T12:57:41;24.20;99.90
25092;DHT22;13082;52.374;4.946;2023-06-19T13:00:11;24.30;99.90
25092;DHT22;13082;52.374;4.946;2023-06-19T13:02:40;24.30;99.90
25092;DHT22;13082;52.374;4.946;2023-06-19T13:05:09;24.40;99.90
25092;DHT22;13082;52.374;4.946;2023-06-19T13:07:35;24.20;99.90
25092;DHT22;13082;52.374;4.946;2023-06-19T13:10:00;24.20;99.90
25092;DHT22;13082;52.374;4.946;2023-06-19T13:12:26;24.30;99.90
25092;DHT22;13082;52.374;4.946;2023-06-19T13:14:51;24.30;99.90
25092;DHT22;13082;52.374;4.946;2023-06-19T13:17:18;24.40;99.90
25092;DHT22;13082;52.374;4.946;2023-06-19T13:19:44;24.30;99.90
25092;DHT22;13082;52.374;4.946;2023-06-19T13:22:10;24.30;99.90
25092;DHT22;13082;52.374;4.946;2023-06-19T13:24:35;24.20;99.90
25092;DHT22;13082;52.374;4.946;2023-06-19T13:27:01;24.40;99.90
25092;DHT22;13082;52.374;4.946;2023-06-19T13:29:27;24.40;99.90
25092;DHT22;13082;52.374;4.946;2023-06-19T13:31:53;24.60;99.90
25092;DHT22;13082;52.374;4.946;2023-06-19T13:34:18;24.60;99.90
25092;DHT22;13082;52.374;4.946;2023-06-19T13:36:46;24.60;99.90
25092;DHT22;13082;52.374;4.946;2023-06-19T13:39:12;24.70;99.90
25092;DHT22;13082;52.374;4.946;2023-06-19T13:41:38;24.70;99.90
25092;DHT22;13082;52.374;4.946;2023-06-19T13:44:04;24.60;99.90
25092;DHT22;13082;52.374;4.946;2023-06-19T13:46:30;24.50;99.90
25092;DHT22;13082;52.374;4.946;2023-06-19T13:48:57;24.10;99.90
25092;DHT22;13082;52.374;4.946;2023-06-19T13:51:23;24.20;99.90
25092;DHT22;13082;52.374;4.946;2023-06-19T13:53:49;24.40;99.90
25092;DHT22;13082;52.374;4.946;2023-06-19T13:56:16;24.60;99.90
25092;DHT22;13082;52.374;4.946;2023-06-19T13:58:42;24.80;99.90
25092;DHT22;13082;52.374;4.946;2023-06-19T14:01:08;24.80;99.90
25092;DHT22;13082;52.374;4.946;2023-06-19T14:03:36;24.90;99.90
25092;DHT22;13082;52.374;4.946;2023-06-19T14:06:02;25.00;99.90
25092;DHT22;13082;52.374;4.946;2023-06-19T14:08:27;25.00;99.90
25092;DHT22;13082;52.374;4.946;2023-06-19T14:10:55;25.00;99.90
25092;DHT22;13082;52.374;4.946;2023-06-19T14:13:20;25.00;99.90
25092;DHT22;13082;52.374;4.946;2023-06-19T14:15:46;25.10;99.90
25092;DHT22;13082;52.374;4.946;2023-06-19T14:18:11;25.00;99.90
25092;DHT22;13082;52.374;4.946;2023-06-19T14:20:37;25.00;99.90
25092;DHT22;13082;52.374;4.946;2023-06-19T14:23:03;25.10;99.90
25092;DHT22;13082;52.374;4.946;2023-06-19T14:25:29;25.10;99.90
25092;DHT22;13082;52.374;4.946;2023-06-19T14:27:54;25.20;99.90
25092;DHT22;13082;52.374;4.946;2023-06-19T14:30:20;25.20;99.90
25092;DHT22;13082;52.374;4.946;2023-06-19T14:32:47;25.20;99.90
25092;DHT22;13082;52.374;4.946;2023-06-19T14:35:13;25.20;99.90
25092;DHT22;13082;52.374;4.946;2023-06-19T14:37:39;25.20;99.90
25092;DHT22;13082;52.374;4.946;2023-06-19T14:40:05;25.20;99.90
25092;DHT22;13082;52.374;4.946;2023-06-19T14:42:31;25.20;99.90
25092;DHT22;13082;52.374;4.946;2023-06-19T14:44:57;25.30;99.90
25092;DHT22;13082;52.374;4.946;2023-06-19T14:47:22;25.30;99.90
25092;DHT22;13082;52.374;4.946;2023-06-19T14:49:49;25.20;99.90
25092;DHT22;13082;52.374;4.946;2023-06-19T14:52:15;25.20;99.90
25092;DHT22;13082;52.374;4.946;2023-06-19T14:54:41;25.30;99.90
25092;DHT22;13082;52.374;4.946;2023-06-19T14:57:07;25.40;99.90
25092;DHT22;13082;52.374;4.946;2023-06-19T14:59:33;25.30;99.90
25092;DHT22;13082;52.374;4.946;2023-06-19T15:01:58;25.20;99.90
25092;DHT22;13082;52.374;4.946;2023-06-19T15:04:24;25.20;99.90
25092;DHT22;13082;52.374;4.946;2023-06-19T15:06:50;25.10;99.90
25092;DHT22;13082;52.374;4.946;2023-06-19T15:09:16;25.20;99.90
25092;DHT22;13082;52.374;4.946;2023-06-19T15:11:41;25.20;99.90
25092;DHT22;13082;52.374;4.946;2023-06-19T15:14:07;25.10;99.90
25092;DHT22;13082;52.374;4.946;2023-06-19T15:16:33;25.20;99.90
25092;DHT22;13082;52.374;4.946;2023-06-19T15:18:59;25.20;99.90
25092;DHT22;13082;52.374;4.946;2023-06-19T15:21:24;25.20;99.90
25092;DHT22;13082;52.374;4.946;2023-06-19T15:23:53;25.30;99.90
25092;DHT22;13082;52.374;4.946;2023-06-19T15:26:20;25.20;99.90
25092;DHT22;13082;52.374;4.946;2023-06-19T15:28:46;25.10;99.90
25092;DHT22;13082;52.374;4.946;2023-06-19T15:31:13;25.10;99.90
25092;DHT22;13082;52.374;4.946;2023-06-19T15:33:38;25.10;99.90
25092;DHT22;13082;52.374;4.946;2023-06-19T15:36:04;24.90;99.90